Time;durP1;ratioP1;P1;durP2;ratioP2;P2;SDS_P1;SDS_P2;PMS_P1;PMS_P2;Temp;Humidity;BMP_temperature;BMP_pressure;BME280_temperature;BME280_humidity;BME280_pressure;Samples;Min_cycle;Max_cycle;Signal;HPM_P1;HPM_P2
2022/03/21 00:02:11;;;;;;;13.80;7.78;;;;;;;5.94;37.87;103004.03;5094332;28;20133;-73
2022/03/21 00:04:38;;;;;;;12.48;7.20;;;;;;;5.84;38.14;103003.97;5110857;27;20103;-73
2022/03/21 00:07:05;;;;;;;14.43;8.15;;;;;;;5.62;38.63;103003.84;5112526;27;20411;-73
2022/03/21 00:09:31;;;;;;;13.95;7.38;;;;;;;5.98;37.99;103000.59;5112289;27;20089;-72
2022/03/21 00:11:57;;;;;;;13.63;7.72;;;;;;;5.64;38.72;103004.75;5112333;27;20035;-73
2022/03/21 00:14:24;;;;;;;18.60;9.20;;;;;;;5.78;38.42;103003.06;5100711;28;20044;-73
2022/03/21 00:16:51;;;;;;;18.02;9.43;;;;;;;5.58;38.72;103010.78;5092073;28;20064;-72
2022/03/21 00:19:18;;;;;;;16.88;8.80;;;;;;;5.33;39.69;103001.97;5091177;28;20557;-73
2022/03/21 00:21:44;;;;;;;16.77;9.48;;;;;;;5.13;39.96;103000.13;5105042;27;20051;-72
2022/03/21 00:24:10;;;;;;;16.88;9.20;;;;;;;5.03;40.36;102995.69;5116158;27;20539;-73
2022/03/21 00:26:37;;;;;;;14.98;8.23;;;;;;;5.20;40.11;102994.09;5112221;28;20567;-73
2022/03/21 00:29:03;;;;;;;19.55;8.98;;;;;;;5.51;39.53;102983.00;5111243;27;20100;-73
2022/03/21 00:31:29;;;;;;;16.67;8.02;;;;;;;5.75;38.94;102977.91;5112611;28;20075;-73
2022/03/21 00:33:57;;;;;;;19.83;9.68;;;;;;;5.72;38.97;102990.91;5106328;28;20052;-73
2022/03/21 00:36:24;;;;;;;18.17;9.48;;;;;;;5.60;39.36;102982.19;5107705;28;20423;-73
2022/03/21 00:38:50;;;;;;;19.48;9.32;;;;;;;5.49;39.51;102997.75;5110464;27;20457;-72
2022/03/21 00:41:16;;;;;;;15.32;8.77;;;;;;;5.69;39.30;102992.63;5111973;27;20044;-72
2022/03/21 00:43:43;;;;;;;14.90;8.38;;;;;;;5.42;39.79;102997.69;5111321;28;20648;-73
2022/03/21 00:46:11;;;;;;;17.35;8.88;;;;;;;5.25;40.18;102984.56;5112035;27;20548;-73
2022/03/21 00:48:38;;;;;;;18.23;9.63;;;;;;;5.60;39.97;102993.47;5110191;27;20047;-72
2022/03/21 00:51:06;;;;;;;16.23;8.68;;;;;;;5.40;39.94;102995.06;5110587;28;20063;-72
2022/03/21 00:53:32;;;;;;;18.35;8.73;;;;;;;5.43;40.13;102989.03;5111804;27;20132;-72
2022/03/21 00:55:58;;;;;;;16.08;7.25;;;;;;;5.31;40.48;102995.91;5111323;28;20039;-72
2022/03/21 00:58:25;;;;;;;18.92;8.75;;;;;;;5.70;39.75;102986.53;5107305;27;20466;-72
2022/03/21 01:00:51;;;;;;;18.42;8.93;;;;;;;5.49;39.63;102989.94;5090665;28;20113;-72
2022/03/21 01:03:17;;;;;;;18.48;9.50;;;;;;;5.03;41.07;102999.19;5091655;28;20102;-72
2022/03/21 01:05:44;;;;;;;20.38;8.50;;;;;;;4.89;41.38;102993.00;5091001;28;20044;-72
2022/03/21 01:08:11;;;;;;;19.33;10.32;;;;;;;4.62;42.06;102996.25;5094359;28;20066;-73
2022/03/21 01:10:38;;;;;;;16.88;9.15;;;;;;;5.20;41.07;102996.72;5090152;28;20109;-72
2022/03/21 01:13:04;;;;;;;13.30;8.82;;;;;;;5.46;40.10;102991.66;5108032;28;20112;-73
2022/03/21 01:15:32;;;;;;;15.02;8.68;;;;;;;5.58;40.11;102989.97;5110983;27;20100;-73
2022/03/21 01:17:59;;;;;;;21.33;9.82;;;;;;;4.94;41.49;102993.94;5110678;28;20558;-73
2022/03/21 01:20:26;;;;;;;15.25;8.85;;;;;;;5.27;40.98;102999.34;5108657;28;20040;-72
2022/03/21 01:22:52;;;;;;;18.33;8.88;;;;;;;4.95;41.50;102994.81;5110213;28;20063;-73
2022/03/21 01:25:20;;;;;;;17.27;9.63;;;;;;;5.27;41.11;102993.28;5110752;28;20461;-73
2022/03/21 01:27:47;;;;;;;18.17;10.07;;;;;;;5.31;40.85;103002.84;5110670;28;20044;-72
2022/03/21 01:30:15;;;;;;;17.00;8.60;;;;;;;5.46;40.61;102991.66;5108467;28;20055;-73
2022/03/21 01:32:43;;;;;;;49.20;9.18;;;;;;;4.96;41.69;102997.41;5110691;28;20039;-73
2022/03/21 01:35:11;;;;;;;16.55;8.90;;;;;;;5.21;41.21;102985.44;5110879;27;20048;-72
2022/03/21 01:37:37;;;;;;;21.70;9.80;;;;;;;4.97;41.67;102995.69;5107348;27;20419;-72
2022/03/21 01:40:04;;;;;;;20.42;9.27;;;;;;;5.01;41.73;102994.84;5097612;27;20477;-73
2022/03/21 01:42:32;;;;;;;18.38;9.20;;;;;;;4.83;41.92;102991.25;5101948;28;20040;-72
2022/03/21 01:44:58;;;;;;;14.93;9.05;;;;;;;5.16;41.39;102994.94;5104830;28;20639;-72
2022/03/21 01:47:25;;;;;;;17.75;8.77;;;;;;;4.83;41.95;102986.06;5110667;27;20505;-72
2022/03/21 01:49:52;;;;;;;18.33;9.40;;;;;;;4.94;41.83;102993.06;5110101;28;20042;-73
2022/03/21 01:52:19;;;;;;;14.75;9.02;;;;;;;4.85;41.86;102988.66;5110196;27;20059;-73
2022/03/21 01:57:31;;;;;;;18.98;9.50;;;;;;;4.80;42.30;102988.59;5108063;27;20457;-73
2022/03/21 01:59:58;;;;;;;15.18;8.15;;;;;;;4.67;42.34;102981.59;5105570;28;20047;-73
2022/03/21 02:02:24;;;;;;;14.05;8.07;;;;;;;4.43;42.76;102979.63;5106710;28;20047;-72
2022/03/21 02:04:51;;;;;;;15.00;7.75;;;;;;;4.42;42.86;102979.63;5089934;28;20165;-73
2022/03/21 02:07:18;;;;;;;19.33;7.32;;;;;;;4.64;42.47;102984.16;5098306;28;20067;-72
2022/03/21 02:09:44;;;;;;;16.40;8.93;;;;;;;4.96;42.00;102983.53;5109129;28;20561;-73
2022/03/21 02:12:11;;;;;;;17.60;9.65;;;;;;;4.89;41.92;102991.28;5109806;27;20441;-72
2022/03/21 02:14:39;;;;;;;16.85;9.00;;;;;;;4.69;42.22;102990.25;5109630;27;20141;-73
2022/03/21 02:17:06;;;;;;;16.70;9.18;;;;;;;4.62;42.74;102992.81;5090790;28;20634;-73
2022/03/21 02:19:36;;;;;;;18.02;9.43;;;;;;;4.44;42.94;102985.69;5089670;28;20213;-73
2022/03/21 02:22:26;;;;;;;18.48;10.15;;;;;;;4.43;42.76;102977.91;5094448;28;20044;-73
2022/03/21 02:25:00;;;;;;;14.73;8.75;;;;;;;4.66;42.36;102974.63;5101411;28;20434;-73
2022/03/21 02:27:30;;;;;;;17.15;8.38;;;;;;;4.51;42.80;102981.44;5109754;28;20503;-73
2022/03/21 02:29:59;;;;;;;17.15;9.35;;;;;;;4.32;43.25;102973.47;5109056;28;20039;-72
2022/03/21 02:32:25;;;;;;;15.85;9.32;;;;;;;4.26;43.48;102977.72;5103451;27;20116;-73
2022/03/21 02:34:55;;;;;;;18.20;9.20;;;;;;;4.56;42.85;102975.44;5091188;28;20044;-73
2022/03/21 02:37:21;;;;;;;20.55;9.40;;;;;;;4.50;42.91;102967.59;5109889;28;20100;-72
2022/03/21 02:39:50;;;;;;;18.85;9.43;;;;;;;4.60;43.02;102977.19;5108981;28;20568;-72
2022/03/21 02:42:16;;;;;;;18.73;8.88;;;;;;;4.66;42.60;102976.34;5107201;28;20128;-73
2022/03/21 02:44:44;;;;;;;18.35;9.65;;;;;;;4.87;42.30;102972.22;5099672;28;20057;-73
2022/03/21 02:47:11;;;;;;;23.10;9.20;;;;;;;4.70;42.56;102978.13;5089026;28;20048;-72
2022/03/21 02:49:38;;;;;;;16.60;9.43;;;;;;;4.82;42.11;102968.72;5088822;28;20044;-73
2022/03/21 02:52:06;;;;;;;17.20;9.65;;;;;;;4.39;43.13;102974.41;5097821;28;20504;-73
2022/03/21 02:54:33;;;;;;;13.82;8.10;;;;;;;4.44;43.26;102977.91;5109462;27;20088;-73
2022/03/21 02:57:00;;;;;;;15.68;8.02;;;;;;;4.68;42.47;102974.66;5107476;28;20135;-73
2022/03/21 02:59:26;;;;;;;18.77;8.70;;;;;;;4.60;42.95;102971.13;5108717;28;20492;-73
2022/03/21 03:01:54;;;;;;;18.42;9.45;;;;;;;4.30;43.65;102971.72;5109109;28;20051;-73
2022/03/21 03:04:21;;;;;;;17.77;7.82;;;;;;;4.57;42.73;102963.31;5109661;28;20049;-73
2022/03/21 03:06:47;;;;;;;15.60;8.77;;;;;;;4.48;43.17;102974.47;5109300;28;20039;-72
2022/03/21 03:09:14;;;;;;;14.98;8.05;;;;;;;4.48;43.01;102978.81;5092665;28;20450;-72
2022/03/21 03:11:40;;;;;;;18.35;9.55;;;;;;;4.39;43.73;102966.63;5090355;28;20052;-73
2022/03/21 03:14:07;;;;;;;19.50;9.32;;;;;;;4.12;44.06;102971.53;5103184;28;20125;-72
2022/03/21 03:16:34;;;;;;;18.60;9.02;;;;;;;4.02;44.25;102980.09;5110126;28;20047;-73
2022/03/21 03:19:01;;;;;;;15.00;9.30;;;;;;;4.01;44.48;102980.94;5108827;28;20097;-73
2022/03/21 03:21:34;;;;;;;18.42;10.20;;;;;;;4.01;44.37;102973.16;5108717;28;20490;-73
2022/03/21 03:24:02;;;;;;;16.75;8.90;;;;;;;4.11;43.93;102972.38;5109187;28;20039;-73
2022/03/21 03:26:28;;;;;;;19.67;9.82;;;;;;;4.14;43.77;102973.28;5109162;28;20043;-73
2022/03/21 03:28:54;;;;;;;20.35;8.43;;;;;;;4.44;43.29;102975.31;5108840;28;20056;-73
2022/03/21 03:31:21;;;;;;;16.10;9.23;;;;;;;4.20;43.74;102975.09;5109114;28;20047;-73
2022/03/21 03:33:48;;;;;;;19.45;8.88;;;;;;;3.86;44.59;102984.22;5109136;28;20047;-73
2022/03/21 03:36:17;;;;;;;19.80;9.93;;;;;;;4.10;44.18;102975.84;5108040;28;20495;-73
2022/03/21 03:38:45;;;;;;;23.48;9.65;;;;;;;3.89;44.56;102976.47;5108965;28;20044;-73
2022/03/21 03:41:11;;;;;;;18.02;9.05;;;;;;;4.32;43.63;102964.81;5110436;28;20048;-73
2022/03/21 03:43:38;;;;;;;19.23;10.68;;;;;;;4.26;43.58;102969.94;5109058;28;20510;-73
2022/03/21 03:46:05;;;;;;;19.40;9.40;;;;;;;3.81;44.89;102980.69;5111178;27;20093;-73
2022/03/21 03:48:32;;;;;;;15.73;9.50;;;;;;;3.60;45.45;102983.03;5113224;28;20476;-72
2022/03/21 03:50:58;;;;;;;19.30;9.50;;;;;;;3.29;45.96;102985.22;5112091;27;20483;-72
2022/03/21 03:53:26;;;;;;;15.60;9.32;;;;;;;3.34;45.64;102980.97;5112023;27;20450;-73
2022/03/21 03:55:52;;;;;;;19.85;9.75;;;;;;;3.43;45.70;102988.03;5112671;27;20059;-73
2022/03/21 03:58:18;;;;;;;19.15;9.25;;;;;;;3.48;45.46;102988.06;5112859;27;20071;-72
2022/03/21 04:00:46;;;;;;;19.50;10.07;;;;;;;3.43;45.72;102988.03;5112148;27;20138;-72
2022/03/21 04:05:57;;;;;;;13.75;6.97;;;;;;;3.55;45.44;102982.97;5112693;27;20084;-73
2022/03/21 04:08:23;;;;;;;15.57;7.70;;;;;;;3.65;45.27;102984.84;5104671;28;20048;-73
2022/03/21 04:10:51;;;;;;;20.15;9.38;;;;;;;3.64;45.15;102990.88;5111883;27;20076;-72
2022/03/21 04:13:17;;;;;;;16.15;9.43;;;;;;;3.75;45.02;102983.22;5110338;27;20116;-73
2022/03/21 04:15:44;;;;;;;19.90;9.82;;;;;;;3.52;45.22;102982.06;5111267;28;20050;-73
2022/03/21 04:18:10;;;;;;;21.48;8.93;;;;;;;3.47;45.49;102991.53;5111861;28;20032;-73
2022/03/21 04:20:39;;;;;;;20.35;9.40;;;;;;;3.37;45.66;102987.91;5111416;27;20513;-72
2022/03/21 04:23:07;;;;;;;21.92;10.50;;;;;;;3.21;46.24;102989.47;5111423;28;20051;-72
2022/03/21 04:25:34;;;;;;;21.63;9.57;;;;;;;3.21;46.16;102986.88;5109814;27;20054;-73
2022/03/21 04:28:08;;;;;;;18.50;9.55;;;;;;;3.00;46.81;103001.19;5090025;28;20036;-72
2022/03/21 04:30:34;;;;;;;20.02;9.63;;;;;;;2.96;46.86;103000.28;5110029;28;20040;-73
2022/03/21 04:33:00;;;;;;;18.48;10.25;;;;;;;2.77;47.27;103001.69;5103701;28;20097;-72
2022/03/21 04:35:27;;;;;;;18.75;9.95;;;;;;;3.39;46.16;102996.63;5109745;28;20097;-72
2022/03/21 04:37:54;;;;;;;20.35;9.55;;;;;;;3.35;46.05;103000.00;5108694;28;20040;-73
2022/03/21 04:40:20;;;;;;;17.13;9.18;;;;;;;3.56;45.40;102999.41;5091034;28;20048;-72
2022/03/21 04:42:46;;;;;;;9.88;5.25;;;;;;;3.27;45.98;102996.44;5096158;28;20047;-73
2022/03/21 04:45:14;;;;;;;19.65;9.52;;;;;;;3.14;46.58;102999.72;5097146;28;20093;-73
2022/03/21 04:47:40;;;;;;;24.70;9.10;;;;;;;3.02;46.69;102996.94;5110562;28;20090;-72
2022/03/21 04:50:08;;;;;;;17.48;8.73;;;;;;;2.74;47.56;103003.38;5108767;28;20043;-73
2022/03/21 04:52:34;;;;;;;13.90;8.00;;;;;;;2.91;47.10;102997.63;5110512;28;20061;-73
2022/03/21 04:55:02;;;;;;;14.25;7.50;;;;;;;2.90;46.75;103015.75;5100708;28;20097;-73
2022/03/21 04:57:29;;;;;;;19.45;9.30;;;;;;;3.11;46.76;103007.41;5099484;28;20479;-73
2022/03/21 04:59:55;;;;;;;15.95;7.63;;;;;;;2.55;47.82;103016.88;5110080;28;21928;-73
2022/03/21 05:02:23;;;;;;;14.15;7.38;;;;;;;2.69;47.49;103016.28;5099856;28;20072;-73
2022/03/21 05:04:49;;;;;;;17.23;9.32;;;;;;;2.89;47.15;103009.69;5110199;28;20043;-73
2022/03/21 05:07:16;;;;;;;17.98;9.65;;;;;;;2.75;47.55;103016.38;5105028;28;20562;-72
2022/03/21 05:09:43;;;;;;;18.40;8.80;;;;;;;2.71;47.27;103019.75;5099623;28;20047;-73
2022/03/21 05:12:11;;;;;;;23.17;9.55;;;;;;;2.85;47.29;103023.44;5111259;28;20047;-73
2022/03/21 05:14:38;;;;;;;18.98;8.25;;;;;;;2.71;47.25;103024.94;5101728;28;20044;-72
2022/03/21 05:17:05;;;;;;;20.45;9.35;;;;;;;2.80;47.20;103025.09;5093810;28;20039;-73
2022/03/21 05:19:34;;;;;;;17.60;8.48;;;;;;;2.66;47.47;103030.91;5103127;28;20077;-73
2022/03/21 05:22:01;;;;;;;19.40;9.10;;;;;;;3.04;46.59;103027.19;5098680;28;20040;-72
2022/03/21 05:32:39;;;;;;;20.58;8.27;;;;;;;2.84;46.65;103024.31;5101973;28;20116;-73
2022/03/21 05:37:51;;;;;;;16.55;8.60;;;;;;;2.82;47.09;103031.16;5090394;28;20054;-73
2022/03/21 05:40:34;;;;;;;19.73;9.88;;;;;;;2.87;46.63;103041.63;5100411;28;20067;-73
2022/03/21 05:43:00;;;;;;;20.27;9.73;;;;;;;3.43;45.59;103042.50;5110940;28;20074;-73
2022/03/21 05:45:28;;;;;;;19.15;9.23;;;;;;;3.21;45.71;103033.53;5108610;28;20116;-73
2022/03/21 05:50:41;;;;;;;18.77;9.40;;;;;;;3.32;45.31;103039.75;5101712;28;20197;-73
2022/03/21 05:53:09;;;;;;;17.40;9.60;;;;;;;3.36;45.23;103046.69;5103438;28;20173;-73
2022/03/21 05:55:36;;;;;;;16.20;8.95;;;;;;;3.81;44.64;103050.75;5098810;28;20389;-74
2022/03/21 05:58:03;;;;;;;22.08;8.88;;;;;;;3.55;44.88;103047.81;5089630;28;20060;-73
2022/03/21 06:00:29;;;;;;;18.33;9.30;;;;;;;3.42;45.33;103048.53;5088687;28;20063;-73
2022/03/21 06:02:55;;;;;;;15.23;8.43;;;;;;;3.52;44.93;103045.19;5090040;28;20043;-73
2022/03/21 06:05:23;;;;;;;16.88;7.50;;;;;;;3.65;44.56;103052.31;5091318;28;20559;-73
2022/03/21 06:07:51;;;;;;;18.67;9.80;;;;;;;3.93;43.93;103053.53;5085920;28;20477;-73
2022/03/21 06:10:18;;;;;;;13.48;7.78;;;;;;;4.40;43.27;103052.34;5089102;28;20050;-73
2022/03/21 06:12:44;;;;;;;21.85;6.85;;;;;;;4.18;43.46;103062.47;5089511;28;20116;-73
2022/03/21 06:15:11;;;;;;;15.48;9.10;;;;;;;4.68;42.81;103053.50;5089524;28;20051;-73
2022/03/21 06:17:39;;;;;;;22.13;9.23;;;;;;;5.21;42.02;103055.69;5089815;28;20040;-73
2022/03/21 06:20:07;;;;;;;20.13;10.75;;;;;;;4.85;41.72;103053.63;5086307;28;20044;-73
2022/03/21 06:22:34;;;;;;;16.05;7.97;;;;;;;5.08;41.75;103059.03;5105455;28;20092;-73
2022/03/21 06:25:02;;;;;;;24.27;10.20;;;;;;;5.68;41.23;103059.44;5099159;28;20040;-73
2022/03/21 06:27:28;;;;;;;19.05;10.07;;;;;;;5.32;41.69;103070.47;5106417;28;20044;-73
2022/03/21 06:29:54;;;;;;;21.30;9.80;;;;;;;5.25;41.64;103057.41;5108684;28;20100;-73
2022/03/21 06:32:21;;;;;;;20.95;10.25;;;;;;;5.99;40.21;103065.69;5100023;28;20101;-73
2022/03/21 06:34:47;;;;;;;16.58;9.15;;;;;;;5.98;40.34;103061.34;5102138;28;20492;-73
2022/03/21 06:37:14;;;;;;;18.30;9.77;;;;;;;6.09;39.75;103058.78;5104725;28;20053;-73
2022/03/21 06:39:40;;;;;;;16.02;8.77;;;;;;;6.13;39.46;103061.41;5109174;28;20458;-72
2022/03/21 06:42:11;;;;;;;17.52;9.90;;;;;;;7.21;37.84;103053.69;5109278;28;20089;-72
2022/03/21 06:44:37;;;;;;;21.48;10.27;;;;;;;7.35;37.35;103062.41;5109330;28;20069;-73
2022/03/21 06:47:04;;;;;;;17.40;9.63;;;;;;;7.08;37.94;103059.81;5101139;28;20121;-73
2022/03/21 06:49:31;;;;;;;13.85;8.75;;;;;;;7.23;37.36;103060.69;5090495;28;20044;-72
2022/03/21 06:51:57;;;;;;;15.88;8.27;;;;;;;7.16;36.80;103064.16;5096252;28;20096;-72
2022/03/21 06:54:23;;;;;;;18.45;10.02;;;;;;;7.28;37.24;103068.47;5099842;28;20077;-73
2022/03/21 06:56:50;;;;;;;16.77;8.75;;;;;;;7.19;36.75;103068.50;5095306;28;20778;-72
2022/03/21 06:59:17;;;;;;;15.77;8.38;;;;;;;6.77;37.46;103071.97;5100098;28;20173;-72
2022/03/21 07:01:44;;;;;;;18.85;10.73;;;;;;;6.93;38.30;103080.69;5089577;28;20044;-73
2022/03/21 07:04:10;;;;;;;18.30;9.70;;;;;;;7.17;37.20;103081.53;5089321;28;20488;-73
2022/03/21 07:06:36;;;;;;;16.25;9.93;;;;;;;7.87;35.44;103075.34;5089103;28;20044;-73
2022/03/21 07:09:03;;;;;;;19.63;10.50;;;;;;;7.55;36.62;103078.88;5084497;28;20101;-72
2022/03/21 07:11:29;;;;;;;14.85;9.02;;;;;;;7.53;35.41;103077.16;5088813;28;20043;-72
2022/03/21 07:13:56;;;;;;;13.93;8.30;;;;;;;7.17;36.00;103072.84;5089139;28;20570;-73
2022/03/21 07:16:23;;;;;;;14.70;9.00;;;;;;;7.23;36.00;103081.56;5082672;28;20094;-73
2022/03/21 07:18:49;;;;;;;18.17;9.52;;;;;;;7.55;36.43;103083.25;5087715;28;20048;-73
2022/03/21 07:21:16;;;;;;;18.27;11.30;;;;;;;7.49;36.29;103084.13;5107301;28;20048;-73
2022/03/21 07:23:43;;;;;;;19.98;10.43;;;;;;;7.46;35.91;103086.75;5092269;28;20105;-73
2022/03/21 07:26:11;;;;;;;16.02;9.88;;;;;;;7.55;35.83;103080.63;5092878;28;20048;-73
2022/03/21 07:28:38;;;;;;;17.63;9.18;;;;;;;7.76;35.31;103088.44;5092533;28;20128;-73
2022/03/21 07:31:05;;;;;;;16.05;9.95;;;;;;;7.62;35.75;103085.84;5092293;28;20040;-72
2022/03/21 07:33:33;;;;;;;15.85;9.50;;;;;;;7.46;34.85;103091.97;5092831;28;20040;-66
2022/03/21 07:35:59;;;;;;;16.65;9.43;;;;;;;8.08;34.62;103085.69;5076156;28;20458;-66
2022/03/21 07:38:28;;;;;;;18.30;10.90;;;;;;;8.13;34.99;103083.94;5077772;28;20048;-66
2022/03/21 07:40:54;;;;;;;17.10;9.48;;;;;;;8.47;33.65;103084.66;5091946;28;20075;-66
2022/03/21 07:43:20;;;;;;;17.15;10.32;;;;;;;9.10;33.80;103078.09;5092841;28;20052;-66
2022/03/21 07:48:30;;;;;;;14.02;9.75;;;;;;;9.07;32.89;103085.97;5095244;28;20559;-67
2022/03/21 07:50:58;;;;;;;15.43;8.73;;;;;;;8.77;32.93;103080.09;5112207;28;22163;-66
2022/03/21 07:53:25;;;;;;;14.80;10.18;;;;;;;8.81;32.33;103094.03;5111834;28;20055;-66
2022/03/21 07:55:51;;;;;;;17.35;9.57;;;;;;;8.06;33.27;103100.50;5112312;28;20132;-67
2022/03/21 07:58:18;;;;;;;15.50;9.40;;;;;;;8.26;34.14;103089.09;5112203;28;20070;-66
2022/03/21 08:00:44;;;;;;;15.98;8.93;;;;;;;9.29;32.43;103085.78;5099458;28;20557;-66
2022/03/21 08:03:14;;;;;;;14.02;9.25;;;;;;;8.78;31.68;103091.44;5092214;28;20050;-66
2022/03/21 08:05:40;;;;;;;13.60;8.77;;;;;;;8.58;31.88;103078.47;5092028;28;20044;-66
2022/03/21 08:08:08;;;;;;;14.93;7.60;;;;;;;8.44;32.21;103087.28;5095902;28;20044;-66
2022/03/21 08:10:35;;;;;;;14.45;7.78;;;;;;;7.99;32.64;103085.72;5099711;28;20036;-66
2022/03/21 08:13:01;;;;;;;15.20;9.05;;;;;;;8.25;32.94;103087.34;5092931;28;20064;-66
2022/03/21 08:15:28;;;;;;;15.50;10.00;;;;;;;8.56;32.35;103095.94;5103745;28;20138;-66
2022/03/21 08:17:56;;;;;;;14.45;8.60;;;;;;;8.47;32.63;103085.53;5107016;28;20048;-66
2022/03/21 08:20:23;;;;;;;17.45;9.15;;;;;;;9.41;33.05;103091.78;5099080;28;20671;-66
2022/03/21 08:22:52;;;;;;;15.55;9.32;;;;;;;10.03;32.56;103089.34;5107768;28;20412;-66
2022/03/21 08:25:21;;;;;;;14.27;9.10;;;;;;;10.07;30.55;103085.81;5099831;28;20122;-66
2022/03/21 08:27:48;;;;;;;13.90;9.30;;;;;;;9.82;31.54;103091.38;5100093;28;20047;-67
2022/03/21 08:30:16;;;;;;;17.05;9.68;;;;;;;10.12;30.56;103083.16;5108663;28;20036;-65
2022/03/21 08:32:42;;;;;;;14.85;9.73;;;;;;;9.81;30.52;103087.00;5089917;28;20052;-66
2022/03/21 08:35:09;;;;;;;14.10;9.02;;;;;;;10.15;31.45;103070.03;5111029;28;20055;-65
2022/03/21 08:37:36;;;;;;;16.30;8.70;;;;;;;10.44;32.73;103093.22;5111814;28;20465;-66
2022/03/21 08:40:02;;;;;;;15.00;9.52;;;;;;;9.51;30.78;103090.81;5099779;28;20499;-66
2022/03/21 08:42:30;;;;;;;16.67;9.73;;;;;;;10.29;32.26;103083.81;5092675;28;20449;-66
2022/03/21 08:44:56;;;;;;;13.77;8.57;;;;;;;10.05;31.45;103081.50;5090798;28;20406;-66
2022/03/21 08:47:23;;;;;;;12.27;7.45;;;;;;;11.13;28.70;103070.28;5091257;28;20048;-66
2022/03/21 08:49:49;;;;;;;13.93;9.43;;;;;;;10.87;29.80;103077.72;5097407;28;20101;-66
2022/03/21 08:52:16;;;;;;;13.43;9.32;;;;;;;9.39;31.17;103086.56;5111336;28;20104;-66
2022/03/21 08:54:42;;;;;;;21.58;10.18;;;;;;;9.71;32.78;103076.63;5095475;28;20043;-66
2022/03/21 08:57:10;;;;;;;14.55;8.73;;;;;;;9.43;30.80;103088.25;5099506;28;20063;-66
2022/03/21 08:59:38;;;;;;;16.23;10.15;;;;;;;9.38;31.73;103089.22;5110357;28;20063;-66
2022/03/21 09:02:05;;;;;;;17.25;9.93;;;;;;;9.62;31.28;103087.19;5111722;28;20058;-66
2022/03/21 09:04:32;;;;;;;15.15;8.35;;;;;;;10.03;31.58;103078.00;5111276;28;20384;-66
2022/03/21 09:06:58;;;;;;;17.58;9.98;;;;;;;11.77;29.63;103082.28;5107569;28;20495;-66
2022/03/21 09:09:25;;;;;;;16.80;10.77;;;;;;;12.22;29.16;103067.31;5110137;28;20043;-66
2022/03/21 09:11:52;;;;;;;14.52;8.50;;;;;;;12.02;28.42;103070.38;5106708;28;20044;-66
2022/03/21 09:14:18;;;;;;;15.93;9.55;;;;;;;10.57;30.26;103069.41;5098389;28;20388;-66
2022/03/21 09:16:47;;;;;;;14.35;10.45;;;;;;;10.50;30.60;103070.41;5108842;28;20047;-66
2022/03/21 09:19:14;;;;;;;15.82;9.77;;;;;;;12.00;28.95;103061.66;5097409;28;20097;-66
2022/03/21 09:21:41;;;;;;;15.43;9.32;;;;;;;12.54;30.14;103068.34;5103984;28;20077;-66
2022/03/21 09:24:07;;;;;;;16.98;9.75;;;;;;;13.19;28.13;103062.41;5109248;28;20297;-66
2022/03/21 09:26:34;;;;;;;15.07;9.63;;;;;;;13.67;26.11;103073.44;5101919;28;20035;-67
2022/03/21 09:29:04;;;;;;;15.73;9.63;;;;;;;13.54;29.54;103064.97;5106800;28;20499;-67
2022/03/21 09:31:31;;;;;;;15.35;9.77;;;;;;;12.88;28.00;103060.50;5092749;28;20396;-66
2022/03/21 09:33:59;;;;;;;20.10;10.70;;;;;;;11.43;28.63;103075.00;5104762;28;20036;-66
2022/03/21 09:36:26;;;;;;;16.15;9.75;;;;;;;11.96;29.07;103062.63;5109278;28;20481;-66
2022/03/21 09:38:53;;;;;;;16.67;10.30;;;;;;;12.82;28.29;103058.03;5104237;28;20044;-66
2022/03/21 09:41:25;;;;;;;15.07;9.50;;;;;;;13.46;27.26;103057.28;5089864;28;20097;-66
2022/03/21 09:43:53;;;;;;;14.95;9.25;;;;;;;12.76;27.55;103058.16;5107873;28;20048;-66
2022/03/21 09:46:20;;;;;;;13.85;9.10;;;;;;;12.26;28.51;103043.56;5110916;28;20047;-66
2022/03/21 09:48:47;;;;;;;14.98;9.63;;;;;;;13.27;28.81;103052.50;5109619;28;20072;-66
2022/03/21 09:51:20;;;;;;;15.95;10.18;;;;;;;12.90;27.95;103047.28;5110112;28;20044;-66
2022/03/21 09:53:46;;;;;;;13.88;8.95;;;;;;;13.00;30.09;103051.44;5101279;28;20140;-66
2022/03/21 09:56:12;;;;;;;13.07;8.75;;;;;;;12.32;27.66;103050.44;5097835;28;20047;-66
2022/03/21 09:58:39;;;;;;;14.25;9.60;;;;;;;12.29;26.69;103043.50;5102778;28;20393;-66
2022/03/21 10:01:05;;;;;;;14.45;9.50;;;;;;;12.43;27.38;103044.03;5107409;28;20105;-66
2022/03/21 10:03:33;;;;;;;17.15;9.55;;;;;;;12.42;27.24;103042.28;5089516;28;20044;-66
2022/03/21 10:06:00;;;;;;;11.77;8.23;;;;;;;13.22;26.45;103050.03;5089289;28;20040;-66
2022/03/21 10:08:29;;;;;;;14.60;9.27;;;;;;;13.04;25.95;103037.31;5101563;28;20061;-66
2022/03/21 10:10:58;;;;;;;14.23;8.85;;;;;;;12.89;26.22;103040.31;5107897;28;20044;-66
2022/03/21 10:13:27;;;;;;;15.38;8.80;;;;;;;12.50;25.87;103034.22;5093786;28;20486;-66
2022/03/21 10:16:11;;;;;;;12.98;9.20;;;;;;;13.01;26.76;103032.97;5102144;28;20051;-66
2022/03/21 10:18:39;;;;;;;14.57;9.77;;;;;;;14.17;28.41;103029.75;5109384;28;20036;-66
2022/03/21 10:21:13;;;;;;;14.00;8.18;;;;;;;13.72;26.31;103037.22;5105460;28;20040;-66
2022/03/21 10:23:41;;;;;;;13.30;9.05;;;;;;;13.56;24.98;103042.09;5105566;28;20093;-66
2022/03/21 10:26:26;;;;;;;14.93;9.90;;;;;;;12.38;25.88;103032.75;5097367;28;20052;-66
2022/03/21 10:28:54;;;;;;;17.08;9.68;;;;;;;12.54;27.01;103026.22;5088881;28;20134;-66
2022/03/21 10:31:34;;;;;;;14.57;8.88;;;;;;;14.01;26.95;103022.28;5089317;28;20154;-66
2022/03/21 10:34:01;;;;;;;13.98;8.88;;;;;;;14.22;27.76;103015.50;5088760;28;20036;-66
2022/03/21 10:36:28;;;;;;;14.98;9.45;;;;;;;14.65;27.81;103014.16;5087915;28;20076;-66
2022/03/21 10:39:09;;;;;;;14.23;9.07;;;;;;;14.63;25.68;103009.78;5087582;28;20563;-67
2022/03/21 10:41:36;;;;;;;17.58;9.52;;;;;;;13.17;26.40;103004.50;5093975;28;20044;-66
2022/03/21 10:44:03;;;;;;;14.15;9.55;;;;;;;13.63;28.07;102999.66;5109065;27;20044;-66
2022/03/21 10:46:29;;;;;;;15.40;9.75;;;;;;;13.77;28.41;103008.97;5108076;28;20467;-66
2022/03/21 10:49:04;;;;;;;13.48;8.77;;;;;;;13.74;25.75;103001.16;5108835;28;20400;-66
2022/03/21 10:51:49;;;;;;;14.95;10.20;;;;;;;14.05;27.02;103001.94;5110710;27;20050;-65
2022/03/21 10:54:45;;;;;;;13.45;8.98;;;;;;;15.19;25.25;103006.19;5104528;28;20043;-67
2022/03/21 10:57:31;;;;;;;14.90;9.68;;;;;;;14.99;25.81;103002.44;5103809;28;20050;-67
2022/03/21 11:00:14;;;;;;;15.77;9.48;;;;;;;14.31;25.53;103001.16;5108710;28;20063;-68
2022/03/21 11:02:56;;;;;;;13.57;8.07;;;;;;;14.30;26.39;102999.44;5088575;28;20089;-67
2022/03/21 11:05:24;;;;;;;14.18;8.80;;;;;;;15.42;28.95;103003.56;5087980;28;20450;-67
2022/03/21 11:07:51;;;;;;;16.38;10.60;;;;;;;14.43;24.76;102999.03;5088949;28;20097;-67
2022/03/21 11:10:18;;;;;;;14.15;10.02;;;;;;;13.99;27.23;103007.44;5088549;28;20537;-68
2022/03/21 11:12:45;;;;;;;10.25;6.75;;;;;;;14.45;26.67;103004.25;5088063;28;20052;-67
2022/03/21 11:15:13;;;;;;;12.77;8.90;;;;;;;14.94;26.71;103007.00;5089005;28;20044;-67
2022/03/21 11:17:41;;;;;;;18.52;9.10;;;;;;;15.15;25.37;103000.09;5078940;28;20065;-68
2022/03/21 11:20:09;;;;;;;14.57;9.75;;;;;;;15.09;25.32;103006.47;5068536;28;20462;-68
2022/03/21 11:22:37;;;;;;;13.93;9.35;;;;;;;13.95;25.80;102995.25;5100510;28;20039;-68
2022/03/21 11:25:04;;;;;;;16.58;8.50;;;;;;;14.09;25.97;103007.09;5109006;28;20069;-68
2022/03/21 11:27:47;;;;;;;17.42;10.13;;;;;;;14.85;27.08;103003.81;5108927;28;20059;-68
2022/03/21 11:30:19;;;;;;;17.90;10.50;;;;;;;15.25;25.33;103000.66;5108365;28;20059;-69
2022/03/21 11:32:54;;;;;;;15.00;9.10;;;;;;;15.34;24.54;102995.91;5108942;28;20050;-69
2022/03/21 11:35:25;;;;;;;19.95;9.90;;;;;;;15.33;26.69;102999.50;5108982;28;20089;-68
2022/03/21 11:37:53;;;;;;;17.33;9.10;;;;;;;15.89;24.54;102980.69;5108452;28;20049;-68
2022/03/21 11:40:28;;;;;;;15.75;8.60;;;;;;;14.93;25.40;102993.84;5105064;28;20040;-68
2022/03/21 11:42:57;;;;;;;17.25;10.13;;;;;;;14.07;26.15;102997.50;5106490;28;20644;-68
2022/03/21 11:45:25;;;;;;;13.82;9.98;;;;;;;13.92;25.51;102993.56;5105294;28;20077;-68
2022/03/21 11:47:51;;;;;;;14.57;9.82;;;;;;;13.90;25.49;103002.41;5092593;28;20089;-68